Time;durP1;ratioP1;P1;durP2;ratioP2;P2;SDS_P1;SDS_P2;PMS_P1;PMS_P2;Temp;Humidity;BMP_temperature;BMP_pressure;BME280_temperature;BME280_humidity;BME280_pressure;Samples;Min_cycle;Max_cycle;Signal;HPM_P1;HPM_P2
2022/05/28 00:02:13;;;;;;;2.38;0.20;;;10.30;86.70;;;;;;4973555;28;20042;-74
2022/05/28 00:04:39;;;;;;;3.83;0.90;;;10.20;25.30;;;;;;4973554;28;20031;-74
2022/05/28 00:07:05;;;;;;;4.50;0.50;;;10.10;39.40;;;;;;4973581;28;20109;-74
2022/05/28 00:09:31;;;;;;;8.32;0.70;;;10.20;12.20;;;;;;4973601;28;20023;-74
2022/05/28 00:11:56;;;;;;;2.58;0.50;;;10.20;22.00;;;;;;4973755;28;20023;-75
2022/05/28 00:14:22;;;;;;;0.88;0.50;;;10.30;4.90;;;;;;4973602;28;20399;-75
2022/05/28 00:16:48;;;;;;;5.53;0.43;;;10.30;1.00;;;;;;4973402;28;20026;-75
2022/05/28 00:19:13;;;;;;;6.53;0.68;;;10.40;1.00;;;;;;4973505;28;20038;-75
2022/05/28 00:21:39;;;;;;;5.63;0.68;;;10.40;1.00;;;;;;4973388;28;20054;-75
2022/05/28 00:24:05;;;;;;;5.35;0.80;;;10.50;1.00;;;;;;4973505;28;20124;-75
2022/05/28 00:26:31;;;;;;;5.93;0.47;;;10.60;1.00;;;;;;4973314;28;20027;-75
2022/05/28 00:28:56;;;;;;;5.13;0.70;;;10.50;1.00;;;;;;4973502;28;20354;-75
2022/05/28 00:31:22;;;;;;;10.82;1.27;;;10.40;1.00;;;;;;4973390;28;20490;-75
2022/05/28 00:33:48;;;;;;;6.50;0.98;;;10.20;1.00;;;;;;4973355;28;20034;-74
2022/05/28 00:36:15;;;;;;;2.00;0.65;;;10.00;1.00;;;;;;4973237;28;20023;-75
2022/05/28 00:38:42;;;;;;;4.95;0.60;;;10.00;1.00;;;;;;4973377;28;20046;-74
2022/05/28 00:41:08;;;;;;;2.80;0.47;;;9.90;1.00;;;;;;4973197;28;20042;-74
2022/05/28 00:43:36;;;;;;;2.85;0.68;;;9.80;1.00;;;;;;4973218;28;20035;-75
2022/05/28 00:46:19;;;;;;;5.25;0.63;;;9.70;1.00;;;;;;4973144;28;20018;-74
2022/05/28 00:48:47;;;;;;;5.10;0.98;;;9.60;1.00;;;;;;4973344;28;20033;-74
2022/05/28 00:51:21;;;;;;;1.02;0.60;;;9.80;1.00;;;;;;4973085;28;20031;-75
2022/05/28 00:53:48;;;;;;;4.93;0.50;;;9.80;1.00;;;;;;4975284;28;20105;-75
2022/05/28 00:56:14;;;;;;;4.70;0.80;;;9.90;1.00;;;;;;4976762;28;20165;-75
2022/05/28 00:58:39;;;;;;;2.80;0.98;;;10.00;1.00;;;;;;4976775;28;20473;-74
2022/05/28 01:01:08;;;;;;;1.73;0.70;;;9.90;1.00;;;;;;4976513;28;20047;-75
2022/05/28 01:04:03;;;;;;;6.40;1.23;;;9.70;1.00;;;;;;4976713;28;20033;-74
2022/05/28 01:06:49;;;;;;;4.72;0.80;;;9.60;1.00;;;;;;4942994;28;20030;-74
2022/05/28 01:09:34;;;;;;;2.67;0.90;;;9.70;1.00;;;;;;4976656;28;20031;-75
2022/05/28 01:12:26;;;;;;;1.65;0.57;;;9.50;1.00;;;;;;4976616;28;20102;-75
2022/05/28 01:15:06;;;;;;;9.65;1.05;;;9.60;1.00;;;;;;4976433;28;20035;-75
2022/05/28 01:17:37;;;;;;;4.93;0.80;;;9.50;1.00;;;;;;4976425;28;20029;-75
2022/05/28 01:20:16;;;;;;;4.22;1.13;;;9.60;1.00;;;;;;4976366;28;20117;-74
2022/05/28 01:23:09;;;;;;;4.10;0.60;;;9.70;1.00;;;;;;4976265;28;20113;-74
2022/05/28 01:26:08;;;;;;;5.35;1.38;;;9.50;1.00;;;;;;4976261;28;20050;-74
2022/05/28 01:28:42;;;;;;;4.32;0.80;;;9.60;1.00;;;;;;4976285;28;20062;-74
2022/05/28 01:31:08;;;;;;;4.70;0.65;;;9.50;1.00;;;;;;4976100;28;20027;-74
2022/05/28 01:33:36;;;;;;;2.65;0.63;;;9.40;1.00;;;;;;4976021;28;20023;-74
2022/05/28 01:36:06;;;;;;;5.43;1.10;;;9.40;1.00;;;;;;4975920;28;20031;-74
2022/05/28 01:38:34;;;;;;;4.20;0.50;;;9.30;1.00;;;;;;4976039;28;20019;-74
2022/05/28 01:41:01;;;;;;;1.38;0.35;;;9.20;1.00;;;;;;4975888;28;20039;-74
2022/05/28 01:43:27;;;;;;;5.35;0.60;;;9.30;1.00;;;;;;4975879;28;20026;-74
2022/05/28 01:45:55;;;;;;;3.72;1.08;;;9.30;1.00;;;;;;4976017;28;20034;-74
2022/05/28 01:48:22;;;;;;;4.45;0.80;;;9.30;1.00;;;;;;4975626;28;20034;-74
2022/05/28 01:50:51;;;;;;;2.85;0.70;;;9.10;1.00;;;;;;4975757;28;20537;-74
2022/05/28 01:56:05;;;;;;;5.03;0.82;;;9.10;1.00;;;;;;4975783;28;20541;-74
2022/05/28 01:58:31;;;;;;;7.25;1.13;;;9.10;1.00;;;;;;4975437;28;20115;-74
2022/05/28 02:00:58;;;;;;;12.95;1.73;;;9.00;1.00;;;;;;4975354;28;20046;-74
2022/05/28 02:03:25;;;;;;;3.72;0.68;;;9.10;1.00;;;;;;4975354;28;20042;-74
2022/05/28 02:05:51;;;;;;;4.55;0.68;;;9.00;1.00;;;;;;4974820;28;20019;-74
2022/05/28 02:08:17;;;;;;;3.70;0.90;;;9.30;1.00;;;;;;4975478;28;20023;-74
2022/05/28 02:10:49;;;;;;;6.53;0.77;;;9.20;1.00;;;;;;4975554;28;20022;-74
2022/05/28 02:13:28;;;;;;;6.07;0.80;;;9.20;1.00;;;;;;4975405;28;20015;-74
2022/05/28 02:16:01;;;;;;;3.80;0.70;;;9.20;1.00;;;;;;4975386;28;20030;-74
2022/05/28 02:18:52;;;;;;;7.30;1.02;;;9.30;1.00;;;;;;4975286;28;20022;-74
2022/05/28 02:21:26;;;;;;;;;;;9.40;1.00;;;;;;4975606;28;20093;-74
2022/05/28 02:24:00;;;;;;;1.73;0.70;;;9.30;1.00;;;;;;4975215;28;19906;-74
2022/05/28 02:26:43;;;;;;;6.32;1.17;;;9.50;1.00;;;;;;4975012;28;20034;-74
2022/05/28 02:29:09;;;;;;;1.98;0.70;;;9.50;1.00;;;;;;4975255;28;20023;-74
2022/05/28 02:31:35;;;;;;;5.65;0.80;;;9.60;1.00;;;;;;4975023;28;20027;-74
2022/05/28 02:34:02;;;;;;;4.15;0.75;;;9.40;1.00;;;;;;4974780;28;20114;-74
2022/05/28 02:36:29;;;;;;;5.30;1.08;;;9.40;1.00;;;;;;4974843;28;20031;-74
2022/05/28 02:38:54;;;;;;;9.40;1.00;;;9.40;1.00;;;;;;4974640;28;20023;-74
2022/05/28 02:41:21;;;;;;;6.97;1.08;;;9.40;1.00;;;;;;4974509;28;20034;-74
2022/05/28 02:43:47;;;;;;;5.57;1.27;;;9.40;1.00;;;;;;4974607;28;20026;-74
2022/05/28 02:46:13;;;;;;;2.00;0.60;;;9.40;1.00;;;;;;4974711;28;20026;-74
2022/05/28 02:48:39;;;;;;;5.88;1.15;;;9.50;1.00;;;;;;4974626;28;20037;-74
2022/05/28 02:51:12;;;;;;;9.23;1.98;;;9.50;1.00;;;;;;4974729;28;20386;-74
2022/05/28 02:53:38;;;;;;;3.75;0.45;;;9.60;1.00;;;;;;4974474;28;20015;-74
2022/05/28 02:56:05;;;;;;;5.50;0.95;;;9.70;1.00;;;;;;4974855;28;20033;-74
2022/05/28 02:58:30;;;;;;;3.25;0.70;;;9.80;1.00;;;;;;4974361;28;20026;-74
2022/05/28 03:00:57;;;;;;;4.35;0.75;;;9.70;1.00;;;;;;4974169;28;20047;-74
2022/05/28 03:03:22;;;;;;;8.00;1.20;;;9.60;1.00;;;;;;4974213;28;20427;-74
2022/05/28 03:05:49;;;;;;;3.70;1.10;;;9.50;1.00;;;;;;4974332;28;20502;-74
2022/05/28 03:08:16;;;;;;;6.85;1.55;;;9.50;1.00;;;;;;4974399;28;20074;-74
2022/05/28 03:10:41;;;;;;;4.10;0.55;;;9.40;1.00;;;;;;4974630;28;20038;-74
2022/05/28 03:13:07;;;;;;;3.33;0.40;;;9.30;1.00;;;;;;4974155;28;20026;-74
2022/05/28 03:15:33;;;;;;;2.35;0.88;;;9.40;1.00;;;;;;4974091;28;20513;-74
2022/05/28 03:17:59;;;;;;;6.00;0.68;;;9.30;1.00;;;;;;4973919;28;20054;-74
2022/05/28 03:20:26;;;;;;;9.20;1.75;;;9.30;1.00;;;;;;4974092;28;20494;-74
2022/05/28 03:22:52;;;;;;;4.40;0.85;;;9.50;1.00;;;;;;4973781;28;20422;-74
2022/05/28 03:25:18;;;;;;;4.20;0.90;;;9.50;1.00;;;;;;4973945;28;20455;-74
2022/05/28 03:27:45;;;;;;;8.43;1.15;;;9.60;1.00;;;;;;4973917;28;20034;-75
2022/05/28 03:30:11;;;;;;;4.45;0.70;;;9.50;1.00;;;;;;4974075;28;20106;-74
2022/05/28 03:32:37;;;;;;;8.27;1.15;;;9.40;1.00;;;;;;4973940;28;20031;-74
2022/05/28 03:35:02;;;;;;;8.45;1.65;;;9.50;1.00;;;;;;4973991;28;20030;-74
2022/05/28 03:37:28;;;;;;;7.35;1.10;;;9.40;1.00;;;;;;4974033;28;20038;-75
2022/05/28 03:39:53;;;;;;;9.05;1.38;;;9.20;1.00;;;;;;4973732;28;20476;-75
2022/05/28 03:42:19;;;;;;;6.45;0.88;;;9.30;1.00;;;;;;4973879;28;20042;-75
2022/05/28 03:44:44;;;;;;;9.27;1.50;;;9.50;1.00;;;;;;4973686;28;20026;-75
2022/05/28 03:47:10;;;;;;;5.40;1.08;;;9.70;1.00;;;;;;4973428;28;20105;-74
2022/05/28 03:49:38;;;;;;;8.90;1.85;;;9.70;1.00;;;;;;4973679;28;20101;-74
2022/05/28 03:52:04;;;;;;;4.90;0.82;;;9.80;1.00;;;;;;4974624;28;20038;-74
2022/05/28 03:54:30;;;;;;;6.88;2.65;;;9.90;1.00;;;;;;4973589;28;20109;-74
2022/05/28 03:57:00;;;;;;;7.53;1.17;;;9.80;1.00;;;;;;4973635;28;20094;-75
2022/05/28 03:59:25;;;;;;;3.85;1.02;;;9.80;1.00;;;;;;4973447;28;20050;-75
2022/05/28 04:01:53;;;;;;;6.43;1.20;;;9.90;1.00;;;;;;4973532;28;20027;-74
2022/05/28 04:04:19;;;;;;;6.88;1.00;;;9.90;1.00;;;;;;4973831;28;20023;-73
2022/05/28 04:06:45;;;;;;;4.05;1.05;;;10.00;99.90;;;;;;4973706;28;20098;-74
2022/05/28 04:09:10;;;;;;;2.90;0.60;;;10.00;99.90;;;;;;4973399;28;20355;-73
2022/05/28 04:11:36;;;;;;;4.18;0.80;;;9.90;99.90;;;;;;4973473;28;20055;-74
2022/05/28 04:14:03;;;;;;;5.22;1.00;;;9.90;99.90;;;;;;4974145;28;20073;-74
2022/05/28 04:16:28;;;;;;;7.43;1.50;;;10.30;99.90;;;;;;4973575;28;20122;-74
2022/05/28 04:18:54;;;;;;;6.75;1.55;;;12.00;99.90;;;;;;4973600;28;20546;-73
2022/05/28 04:21:19;;;;;;;8.43;1.15;;;13.00;99.90;;;;;;4973435;28;20034;-74
2022/05/28 04:23:45;;;;;;;3.65;0.82;;;13.50;99.90;;;;;;4973584;28;20030;-74
2022/05/28 04:26:11;;;;;;;5.57;1.08;;;14.00;99.90;;;;;;4973300;28;20026;-74
2022/05/28 04:28:36;;;;;;;5.50;0.88;;;14.50;99.90;;;;;;4975100;28;20106;-74
2022/05/28 04:31:02;;;;;;;9.90;1.52;;;15.40;99.90;;;;;;4985092;28;20030;-74
2022/05/28 04:33:27;;;;;;;7.25;1.10;;;15.80;99.90;;;;;;4996702;28;20081;-74
2022/05/28 04:35:53;;;;;;;9.30;1.17;;;16.30;99.90;;;;;;4996534;28;20026;-74
2022/05/28 04:38:19;;;;;;;5.45;1.45;;;15.10;99.90;;;;;;4996625;28;20026;-74
2022/05/28 04:40:44;;;;;;;4.85;0.85;;;14.80;99.90;;;;;;5011417;28;20104;-74
2022/05/28 04:43:10;;;;;;;4.65;1.20;;;15.20;99.90;;;;;;5015951;28;20022;-74
2022/05/28 04:45:35;;;;;;;6.25;1.30;;;13.50;99.90;;;;;;5015538;28;20084;-74
2022/05/28 04:48:01;;;;;;;8.50;1.25;;;13.20;99.90;;;;;;5015789;28;20017;-75
2022/05/28 04:50:26;;;;;;;9.15;2.13;;;15.60;99.90;;;;;;5015765;28;20385;-75
2022/05/28 04:52:52;;;;;;;6.53;1.48;;;14.60;99.90;;;;;;5016127;28;20362;-75
2022/05/28 04:55:18;;;;;;;8.95;1.10;;;13.40;99.90;;;;;;5015696;28;20022;-75
2022/05/28 04:57:43;;;;;;;6.95;1.02;;;12.80;99.90;;;;;;5015739;28;20034;-74
2022/05/28 05:00:14;;;;;;;5.53;1.30;;;12.50;99.90;;;;;;5015242;28;20120;-75
2022/05/28 05:02:40;;;;;;;6.47;1.27;;;12.60;99.90;;;;;;5015579;28;20038;-76
2022/05/28 05:05:08;;;;;;;3.13;0.98;;;12.50;99.90;;;;;;5015887;28;20112;-75
2022/05/28 05:07:34;;;;;;;4.50;0.68;;;12.30;99.90;;;;;;5015440;28;20366;-75
2022/05/28 05:10:00;;;;;;;8.15;1.40;;;12.30;99.90;;;;;;5000641;28;20052;-75
2022/05/28 05:12:25;;;;;;;3.28;1.00;;;12.60;99.90;;;;;;4995951;28;20105;-76
2022/05/28 05:14:51;;;;;;;9.10;2.45;;;13.20;99.90;;;;;;4995757;28;20045;-75
2022/05/28 05:17:16;;;;;;;4.88;1.35;;;13.70;99.90;;;;;;4995799;28;20112;-75
2022/05/28 05:19:42;;;;;;;5.10;1.48;;;15.00;99.90;;;;;;4996057;28;20022;-75
2022/05/28 05:22:08;;;;;;;7.03;1.42;;;18.50;99.90;;;;;;4995520;28;20547;-75
2022/05/28 05:24:34;;;;;;;6.63;1.83;;;17.30;99.90;;;;;;4995606;28;20026;-75
2022/05/28 05:27:01;;;;;;;5.60;1.20;;;17.80;99.90;;;;;;4995442;28;20022;-75
2022/05/28 05:29:27;;;;;;;7.03;1.90;;;20.90;99.90;;;;;;4994908;28;20034;-75
2022/05/28 05:31:53;;;;;;;3.65;1.00;;;22.60;99.90;;;;;;4995476;28;20026;-76
2022/05/28 05:34:18;;;;;;;6.72;0.80;;;22.90;99.90;;;;;;4994843;28;20057;-76
2022/05/28 05:36:44;;;;;;;11.20;1.05;;;23.70;99.90;;;;;;4994594;28;20449;-76
2022/05/28 05:39:10;;;;;;;7.70;1.00;;;21.00;99.90;;;;;;4993115;28;20018;-75
2022/05/28 05:41:42;;;;;;;10.23;1.60;;;17.30;99.90;;;;;;4994628;28;20505;-75
2022/05/28 05:44:08;;;;;;;5.82;1.10;;;16.60;99.90;;;;;;4994776;28;20113;-74
2022/05/28 05:46:34;;;;;;;3.35;0.65;;;16.80;99.90;;;;;;4994678;28;20440;-74
2022/05/28 05:49:00;;;;;;;3.30;0.95;;;21.00;99.90;;;;;;4995197;28;20026;-73
2022/05/28 05:51:27;;;;;;;6.88;1.35;;;19.10;99.90;;;;;;4995212;28;20030;-76
2022/05/28 05:53:52;;;;;;;8.55;0.95;;;17.60;99.90;;;;;;4994630;28;20057;-75
2022/05/28 05:56:18;;;;;;;5.97;1.17;;;16.60;99.90;;;;;;4994612;28;20062;-76
2022/05/28 05:58:43;;;;;;;6.78;1.30;;;16.60;99.90;;;;;;4995034;28;20109;-75
2022/05/28 06:01:09;;;;;;;3.17;1.08;;;19.50;99.90;;;;;;4994614;28;20503;-75
2022/05/28 06:03:35;;;;;;;7.68;1.50;;;20.70;99.90;;;;;;4994683;28;20050;-76
2022/05/28 06:06:03;;;;;;;3.72;0.95;;;17.30;99.90;;;;;;4994906;28;20045;-75
2022/05/28 06:08:30;;;;;;;6.60;1.00;;;15.90;99.90;;;;;;4994850;28;20031;-75
2022/05/28 06:10:55;;;;;;;3.08;1.02;;;20.20;99.90;;;;;;4994709;28;20044;-75
2022/05/28 06:13:21;;;;;;;3.72;0.70;;;21.10;99.90;;;;;;4994737;28;20098;-75
2022/05/28 06:15:47;;;;;;;7.22;1.45;;;21.70;99.90;;;;;;4994557;28;20482;-75
2022/05/28 06:18:13;;;;;;;3.00;1.10;;;22.60;99.90;;;;;;4994680;28;20114;-74
2022/05/28 06:20:39;;;;;;;4.38;1.25;;;23.50;99.90;;;;;;4994476;28;20041;-75
2022/05/28 06:23:05;;;;;;;4.70;0.95;;;23.80;99.90;;;;;;4994495;28;20031;-75
2022/05/28 06:25:31;;;;;;;5.82;1.63;;;24.20;99.90;;;;;;4994538;28;20053;-75
2022/05/28 06:27:57;;;;;;;2.90;0.63;;;21.70;99.90;;;;;;4993734;28;20339;-75
2022/05/28 06:30:23;;;;;;;3.30;0.63;;;17.60;99.90;;;;;;4994469;28;20026;-75
2022/05/28 06:32:48;;;;;;;4.30;1.02;;;16.50;99.90;;;;;;4994493;28;20026;-75
2022/05/28 06:35:14;;;;;;;5.75;1.33;;;16.50;99.90;;;;;;4994258;28;20038;-74
2022/05/28 06:37:40;;;;;;;5.72;0.88;;;16.70;99.90;;;;;;4994127;28;20022;-74
2022/05/28 06:40:06;;;;;;;3.30;1.10;;;19.10;99.90;;;;;;4994071;28;20323;-75
2022/05/28 06:42:32;;;;;;;4.65;1.05;;;20.20;99.90;;;;;;4994087;28;20490;-75
2022/05/28 06:44:58;;;;;;;4.10;0.95;;;22.10;99.90;;;;;;4994028;28;20026;-75
2022/05/28 06:47:23;;;;;;;3.45;0.70;;;19.10;99.90;;;;;;4993644;28;20026;-74
2022/05/28 06:51:01;;;;;;;4.95;0.68;;;17.00;99.90;;;;;;4993425;28;20030;-73
2022/05/28 06:52:34;;;;;;;3.33;1.08;;;16.90;99.90;;;;;;4993631;28;20030;-74
2022/05/28 06:55:00;;;;;;;7.60;1.30;;;17.70;99.90;;;;;;4993844;28;20081;-74
2022/05/28 06:57:27;;;;;;;8.13;1.20;;;22.70;99.90;;;;;;4993771;28;20031;-73
2022/05/28 06:59:52;;;;;;;9.38;1.83;;;23.50;99.90;;;;;;4993516;28;20111;-74
2022/05/28 07:02:18;;;;;;;6.20;1.45;;;25.10;99.90;;;;;;4991972;28;20347;-73
2022/05/28 07:04:45;;;;;;;3.75;0.63;;;23.40;99.90;;;;;;4991857;28;20098;-74
2022/05/28 07:07:11;;;;;;;1.77;1.00;;;20.60;99.90;;;;;;4993782;28;20080;-74
2022/05/28 07:09:36;;;;;;;7.00;1.23;;;24.70;99.90;;;;;;4993737;28;20030;-74
2022/05/28 07:12:02;;;;;;;5.60;0.88;;;22.80;99.90;;;;;;4993565;28;20422;-74
2022/05/28 07:14:28;;;;;;;1.92;0.85;;;23.90;99.90;;;;;;4993939;28;20102;-74
2022/05/28 07:16:53;;;;;;;4.32;0.95;;;20.40;99.90;;;;;;4993380;28;20494;-73
2022/05/28 07:19:19;;;;;;;6.28;1.00;;;18.10;99.90;;;;;;4993156;28;20037;-73
2022/05/28 07:21:44;;;;;;;7.10;0.90;;;16.80;99.90;;;;;;4993466;28;20441;-73
2022/05/28 07:24:10;;;;;;;5.68;1.40;;;20.20;99.90;;;;;;4993270;28;20026;-74
2022/05/28 07:26:35;;;;;;;4.75;1.40;;;23.40;99.90;;;;;;4993206;28;20465;-74
2022/05/28 07:29:01;;;;;;;4.53;0.90;;;24.20;99.90;;;;;;4993504;28;20022;-74
2022/05/28 07:31:26;;;;;;;3.58;0.90;;;20.70;99.90;;;;;;4993325;28;20030;-72
2022/05/28 07:33:52;;;;;;;5.78;1.05;;;21.70;99.90;;;;;;4993175;28;20049;-74
2022/05/28 07:36:22;;;;;;;3.17;1.27;;;22.80;99.90;;;;;;4993389;28;20023;-74
2022/05/28 07:38:48;;;;;;;3.08;1.10;;;24.40;99.90;;;;;;4993540;28;20034;-74
2022/05/28 07:41:24;;;;;;;2.97;0.90;;;24.20;99.90;;;;;;4993356;28;20378;-73
2022/05/28 07:43:54;;;;;;;2.83;0.68;;;22.80;99.90;;;;;;4991974;28;20134;-74
2022/05/28 07:46:26;;;;;;;1.83;0.70;;;22.60;99.90;;;;;;4991838;28;20031;-74
2022/05/28 07:48:53;;;;;;;2.58;0.90;;;23.90;99.90;;;;;;4991334;28;20030;-74
2022/05/28 07:51:19;;;;;;;4.15;1.13;;;25.30;99.90;;;;;;4991628;28;20030;-74
2022/05/28 07:53:45;;;;;;;4.68;0.93;;;26.30;99.90;;;;;;4991601;28;20057;-74
2022/05/28 07:56:10;;;;;;;4.30;0.93;;;26.70;99.90;;;;;;4991381;28;20030;-74
2022/05/28 07:58:36;;;;;;;4.07;0.93;;;23.80;99.90;;;;;;4990926;28;20084;-74
2022/05/28 08:01:03;;;;;;;3.22;1.27;;;25.80;99.90;;;;;;4990424;28;20409;-74
2022/05/28 08:03:29;;;;;;;4.47;0.80;;;25.60;99.90;;;;;;4992580;28;20504;-74
2022/05/28 08:05:55;;;;;;;2.33;0.85;;;28.20;99.90;;;;;;4994662;28;20617;-74
2022/05/28 08:08:23;;;;;;;5.75;1.08;;;23.40;99.90;;;;;;4994284;28;20023;-74
2022/05/28 08:10:49;;;;;;;4.72;0.98;;;20.90;99.90;;;;;;4994384;28;20027;-74
2022/05/28 08:13:19;;;;;;;3.80;0.77;;;19.30;99.90;;;;;;4994300;28;20045;-74
2022/05/28 08:15:46;;;;;;;4.80;0.88;;;24.10;99.90;;;;;;5003793;28;20029;-74
2022/05/28 08:18:14;;;;;;;6.15;1.20;;;24.00;99.90;;;;;;5013974;28;20045;-74
2022/05/28 08:23:24;;;;;;;7.88;1.50;;;20.60;99.90;;;;;;4975355;28;20082;-74
2022/05/28 08:25:51;;;;;;;4.22;1.20;;;18.90;99.90;;;;;;4980972;28;20428;-74
2022/05/28 08:28:17;;;;;;;7.53;1.52;;;18.60;99.90;;;;;;4995471;28;20031;-74
2022/05/28 08:30:44;;;;;;;6.22;1.23;;;17.90;99.90;;;;;;4996309;28;20498;-74
2022/05/28 08:33:11;;;;;;;4.82;1.40;;;18.50;99.90;;;;;;4996398;28;20046;-74
2022/05/28 08:35:38;;;;;;;4.57;1.13;;;19.80;99.90;;;;;;4996344;28;20030;-74
2022/05/28 08:38:05;;;;;;;6.03;1.13;;;22.60;99.90;;;;;;4995997;28;20034;-74
2022/05/28 08:40:45;;;;;;;4.72;1.10;;;24.00;99.90;;;;;;4996946;28;20039;-74
2022/05/28 08:43:13;;;;;;;4.70;1.15;;;20.70;99.90;;;;;;4994279;28;20401;-74
2022/05/28 08:45:39;;;;;;;5.32;1.20;;;23.40;99.90;;;;;;4995056;28;20034;-74
2022/05/28 08:48:06;;;;;;;4.97;1.13;;;26.00;99.90;;;;;;4994401;28;20029;-73
2022/05/28 08:50:39;;;;;;;3.40;0.88;;;23.50;99.90;;;;;;4994305;28;20446;-73
2022/05/28 08:53:04;;;;;;;4.75;1.05;;;24.80;99.90;;;;;;4994440;28;20041;-74
2022/05/28 08:55:36;;;;;;;5.38;1.05;;;24.10;99.90;;;;;;4995085;28;20517;-74
2022/05/28 08:58:06;;;;;;;3.30;1.33;;;24.10;99.90;;;;;;4996110;28;20030;-73
2022/05/28 09:01:03;;;;;;;4.65;0.93;;;25.70;99.90;;;;;;4995558;28;20038;-73
2022/05/28 09:03:50;;;;;;;4.63;1.25;;;25.30;99.90;;;;;;4979429;28;20085;-73
2022/05/28 09:06:26;;;;;;;4.00;1.25;;;21.00;99.90;;;;;;4995822;28;20060;-74
2022/05/28 09:08:54;;;;;;;6.60;1.50;;;18.70;99.90;;;;;;4995631;28;20026;-73
2022/05/28 09:11:41;;;;;;;4.95;1.40;;;17.90;99.90;;;;;;4978095;28;20085;-74
2022/05/28 09:14:27;;;;;;;5.00;1.50;;;22.40;99.90;;;;;;4993102;28;20035;-74
2022/05/28 09:17:01;;;;;;;4.93;1.00;;;22.60;99.90;;;;;;4995520;28;20072;-74
2022/05/28 09:19:35;;;;;;;4.95;1.58;;;21.40;99.90;;;;;;4995720;28;20109;-73
2022/05/28 09:22:01;;;;;;;3.38;1.20;;;18.70;99.90;;;;;;4995849;28;20038;-72
2022/05/28 09:24:30;;;;;;;2.97;0.82;;;17.40;99.90;;;;;;4995603;28;20034;-73
2022/05/28 09:27:01;;;;;;;5.50;1.30;;;17.70;99.90;;;;;;4995214;28;20027;-73
2022/05/28 09:29:35;;;;;;;4.78;1.70;;;17.60;99.90;;;;;;4995283;28;20030;-73
2022/05/28 09:32:22;;;;;;;4.32;1.08;;;17.20;99.90;;;;;;4983827;28;20530;-73
2022/05/28 09:35:13;;;;;;;6.97;1.40;;;19.70;99.90;;;;;;4977759;28;20084;-73
2022/05/28 09:38:11;;;;;;;3.58;1.35;;;25.80;99.90;;;;;;4981902;28;20082;-73
2022/05/28 09:40:39;;;;;;;1.63;0.88;;;23.50;99.90;;;;;;4975757;28;20038;-75
2022/05/28 09:43:37;;;;;;;5.43;0.80;;;20.20;99.90;;;;;;4975760;28;20149;-73
2022/05/28 09:46:27;;;;;;;3.03;1.08;;;19.50;99.90;;;;;;4975768;28;20433;-72
2022/05/28 09:49:12;;;;;;;5.57;1.55;;;19.90;99.90;;;;;;4975808;28;20050;-72
2022/05/28 09:51:38;;;;;;;5.18;1.30;;;23.80;99.90;;;;;;4975692;28;20027;-73
2022/05/28 09:54:20;;;;;;;2.13;1.02;;;21.20;99.90;;;;;;4975675;28;20027;-73
2022/05/28 09:56:52;;;;;;;5.05;1.20;;;19.50;99.90;;;;;;4975893;28;20030;-73
2022/05/28 09:59:43;;;;;;;3.90;1.35;;;19.50;99.90;;;;;;4975398;28;20025;-73
2022/05/28 10:02:16;;;;;;;2.00;0.73;;;23.60;99.90;;;;;;4975437;28;20551;-73
2022/05/28 10:04:49;;;;;;;4.32;0.90;;;24.20;99.90;;;;;;4975464;28;20085;-73
2022/05/28 10:07:26;;;;;;;4.00;1.10;;;20.80;99.90;;;;;;4975308;28;20031;-73
2022/05/28 10:09:53;;;;;;;4.88;1.10;;;19.20;99.90;;;;;;4975622;28;20066;-73
2022/05/28 10:12:30;;;;;;;5.38;0.93;;;20.70;99.90;;;;;;4980252;28;20026;-72
2022/05/28 10:15:03;;;;;;;9.95;1.38;;;24.60;99.90;;;;;;4994590;28;20101;-73
2022/05/28 10:17:31;;;;;;;8.00;1.30;;;22.80;99.90;;;;;;4994723;28;20057;-73
2022/05/28 10:19:57;;;;;;;6.05;0.93;;;22.10;99.90;;;;;;4994177;28;20132;-73
2022/05/28 10:22:25;;;;;;;5.95;1.40;;;20.20;99.90;;;;;;4993961;28;20074;-73
2022/05/28 10:24:57;;;;;;;4.93;0.90;;;17.90;99.90;;;;;;4994613;28;20015;-73
2022/05/28 10:27:46;;;;;;;5.07;1.20;;;17.30;99.90;;;;;;4993600;28;20046;-73
2022/05/28 10:30:36;;;;;;;8.95;1.58;;;17.20;99.90;;;;;;4994317;28;20037;-74
2022/05/28 10:33:05;;;;;;;4.72;1.45;;;17.40;99.90;;;;;;4994363;28;20026;-73
2022/05/28 10:35:31;;;;;;;3.45;1.02;;;17.40;99.90;;;;;;4994326;28;20029;-73
2022/05/28 10:38:16;;;;;;;4.15;1.33;;;22.40;99.90;;;;;;4993962;28;20039;-73
2022/05/28 10:40:53;;;;;;;4.20;0.82;;;20.00;99.90;;;;;;4993961;28;20526;-73
2022/05/28 10:43:27;;;;;;;3.60;0.77;;;20.40;99.90;;;;;;4993968;28;20030;-73
2022/05/28 10:46:05;;;;;;;7.53;1.10;;;18.70;99.90;;;;;;4994036;28;20034;-72
2022/05/28 10:48:37;;;;;;;2.78;1.13;;;21.80;99.90;;;;;;4993940;28;20490;-74
2022/05/28 10:51:15;;;;;;;6.68;1.08;;;18.80;99.90;;;;;;4993869;28;20022;-73
2022/05/28 10:54:02;;;;;;;2.03;0.70;;;21.30;99.90;;;;;;4993967;28;20023;-73
2022/05/28 10:56:55;;;;;;;5.63;1.33;;;24.70;99.90;;;;;;4993872;28;20026;-73
2022/05/28 10:59:44;;;;;;;3.60;1.30;;;20.50;99.90;;;;;;4993159;28;20050;-72
2022/05/28 11:02:30;;;;;;;4.45;0.95;;;22.70;99.90;;;;;;4993566;28;20035;-74
2022/05/28 11:05:31;;;;;;;2.63;0.57;;;23.80;99.90;;;;;;4974171;28;20049;-73
2022/05/28 11:08:18;;;;;;;3.30;1.02;;;23.40;99.90;;;;;;4994572;28;20026;-73
2022/05/28 11:10:58;;;;;;;6.22;1.40;;;19.20;99.90;;;;;;4992932;28;20033;-74
2022/05/28 11:13:32;;;;;;;;;;;18.40;99.90;;;;;;4993946;28;20481;-74
2022/05/28 11:16:10;;;;;;;3.47;0.65;;;18.50;99.90;;;;;;4992736;28;19909;-73
2022/05/28 11:18:56;;;;;;;6.53;1.10;;;19.20;99.90;;;;;;4992716;28;20026;-73
2022/05/28 11:21:31;;;;;;;5.47;1.55;;;19.10;99.90;;;;;;4992980;28;20035;-73
2022/05/28 11:24:09;;;;;;;7.63;1.10;;;19.50;99.90;;;;;;4993893;28;20022;-74
2022/05/28 11:26:53;;;;;;;6.18;1.10;;;18.90;99.90;;;;;;4993046;28;20022;-73
2022/05/28 11:29:38;;;;;;;7.10;1.05;;;19.80;99.90;;;;;;4993422;28;20110;-74
2022/05/28 11:32:10;;;;;;;6.15;1.48;;;18.70;99.90;;;;;;4993175;28;20073;-74
2022/05/28 11:34:44;;;;;;;5.80;1.35;;;18.30;99.90;;;;;;4993140;28;20057;-74
2022/05/28 11:37:23;;;;;;;4.85;0.82;;;19.00;99.90;;;;;;4993152;28;20022;-73
2022/05/28 11:39:58;;;;;;;7.63;1.38;;;18.90;99.90;;;;;;4993469;28;20030;-73
2022/05/28 11:42:31;;;;;;;5.47;1.10;;;18.50;99.90;;;;;;4993192;28;20030;-73
2022/05/28 11:44:59;;;;;;;9.65;1.80;;;18.00;99.90;;;;;;4993322;28;20407;-73
2022/05/28 11:47:38;;;;;;;3.13;0.75;;;18.50;99.90;;;;;;4993069;28;20026;-74
2022/05/28 11:53:41;;;;;;;6.53;1.38;;;17.50;99.90;;;;;;4993203;28;20045;-73
2022/05/28 11:56:15;;;;;;;5.82;1.70;;;16.40;99.90;;;;;;4993047;28;20482;-74
2022/05/28 11:58:53;;;;;;;8.82;1.20;;;16.50;99.90;;;;;;4993042;28;20023;-74
2022/05/28 12:01:27;;;;;;;6.28;0.90;;;16.50;99.90;;;;;;4992749;28;20080;-73
2022/05/28 12:03:52;;;;;;;5.28;0.95;;;16.60;99.90;;;;;;4993149;28;20484;-73
2022/05/28 12:06:28;;;;;;;6.40;1.15;;;16.70;99.90;;;;;;4992959;28;20106;-73
2022/05/28 12:09:05;;;;;;;9.02;1.73;;;17.10;99.90;;;;;;4992930;28;20026;-73
2022/05/28 12:11:44;;;;;;;1.70;1.00;;;18.00;99.90;;;;;;4992909;28;20022;-73
2022/05/28 12:14:24;;;;;;;9.15;0.90;;;18.10;99.90;;;;;;4992796;28;20019;-73
2022/05/28 12:17:02;;;;;;;;;;;18.20;99.90;;;;;;4992743;28;20022;-73
2022/05/28 12:19:28;;;;;;;4.10;0.98;;;18.10;99.90;;;;;;4973448;28;19942;-73
2022/05/28 12:22:26;;;;;;;4.43;0.30;;;17.70;99.90;;;;;;4973567;28;20070;-73
2022/05/28 12:25:06;;;;;;;1.42;0.65;;;16.70;99.90;;;;;;4973507;28;20022;-73
2022/05/28 12:28:08;;;;;;;1.42;0.63;;;16.00;99.90;;;;;;4992614;28;20050;-73
2022/05/28 12:30:45;;;;;;;5.15;1.05;;;16.40;99.90;;;;;;4993073;28;20030;-73
2022/05/28 12:33:28;;;;;;;3.08;0.70;;;16.40;99.90;;;;;;4993037;28;20631;-73
2022/05/28 12:36:21;;;;;;;7.60;1.00;;;16.00;99.90;;;;;;4992606;28;20062;-73
2022/05/28 12:38:56;;;;;;;5.75;1.52;;;16.60;99.90;;;;;;4992602;28;20053;-73
2022/05/28 12:41:30;;;;;;;6.57;1.20;;;17.00;99.90;;;;;;4992538;28;20065;-74
2022/05/28 12:44:01;;;;;;;8.02;0.63;;;17.50;99.90;;;;;;4992537;28;20070;-73
2022/05/28 12:46:48;;;;;;;5.13;0.93;;;17.50;99.90;;;;;;4992414;28;20101;-74
2022/05/28 12:49:44;;;;;;;3.83;0.82;;;17.10;99.90;;;;;;4993794;28;20017;-73
2022/05/28 12:52:16;;;;;;;8.05;0.95;;;17.00;99.90;;;;;;4995992;28;20023;-74
2022/05/28 12:54:42;;;;;;;3.13;0.60;;;17.20;99.90;;;;;;4996090;28;20041;-73
2022/05/28 12:57:26;;;;;;;6.93;1.08;;;17.20;99.90;;;;;;4995895;28;20042;-73
2022/05/28 13:00:20;;;;;;;3.30;1.00;;;18.20;99.90;;;;;;4995297;28;20065;-73
2022/05/28 13:02:48;;;;;;;5.80;1.58;;;17.80;99.90;;;;;;4994051;28;20055;-73
2022/05/28 13:05:31;;;;;;;5.50;0.80;;;18.00;99.90;;;;;;4996031;28;20026;-74
2022/05/28 13:08:07;;;;;;;4.43;0.63;;;17.60;99.90;;;;;;4995675;28;20037;-73
2022/05/28 13:10:32;;;;;;;6.15;0.95;;;17.20;99.90;;;;;;4995655;28;20022;-73
2022/05/28 13:13:01;;;;;;;6.32;1.13;;;17.20;99.90;;;;;;4995642;28;20149;-73
2022/05/28 13:15:32;;;;;;;4.57;0.85;;;16.80;99.90;;;;;;4995713;28;20050;-73
2022/05/28 13:18:09;;;;;;;4.13;0.85;;;16.70;99.90;;;;;;4995630;28;20022;-73
2022/05/28 13:20:52;;;;;;;4.35;0.80;;;17.20;99.90;;;;;;4995617;28;20043;-73
2022/05/28 13:23:33;;;;;;;5.00;1.10;;;16.40;99.90;;;;;;4995655;28;20487;-73